Latest Weather Observations for Truscott

IDD60801

Issued at 5:05 pm CST Sunday 23 November 2014 (issued every 30 minutes, with the page automatically refreshed every 10 minutes)

About weather observations | Map of weather stations | Latest weather observations for NT | Other Formats
Station Details ID: 001020 Name: TRUSCOTT Lat: -14.09 Lon: 126.39 Height: 51.0 m
Data from the previous 72 hours. | See also: Recent months at Truscott
Date/Time
CST
Temp
°C
App
Temp
°C
Dew
Point
Rel
Hum
%
Delta-T
°C
Wind Press
QNH
hPa
Press
MSL
hPa
Rain
since 9 am
mm
Dir
 
Spd
km/h
Gust
km/h
Spd
kts
Gust
kts
23/05:00pm 32.3 34.5 23.3 59 6.2 N 17 24 9 13 1007.1 - 0.0
23/04:30pm 33.4 35.9 23.1 54 7.1 NNW 15 22 8 12 1007.4 1006.8 0.0
23/04:00pm 32.4 34.4 23.6 59 6.1 N 19 26 10 14 1007.0 - 0.0
23/03:30pm 33.7 36.6 25.1 60 6.1 N 19 28 10 15 1007.4 - 0.0
23/03:01pm 34.0 33.1 17.7 38 10.5 N 19 26 10 14 1007.6 - 0.0
23/03:00pm 33.9 33.7 18.4 40 10.1 N 17 26 9 14 1007.6 - 0.0
23/02:47pm 33.3 34.5 21.5 50 8.0 N 17 24 9 13 1007.8 - 0.0
23/02:30pm 34.2 35.5 22.3 50 8.2 NNW 19 28 10 15 1008.2 - 0.0
23/02:00pm 34.5 35.9 22.6 50 8.2 N 19 28 10 15 1008.7 - 0.0
23/01:30pm 33.8 36.0 22.6 52 7.7 N 15 24 8 13 1009.2 1008.6 0.0
23/01:00pm 34.0 35.9 22.7 51 7.8 N 17 26 9 14 1009.5 - 0.0
23/12:30pm 34.0 35.9 22.7 51 7.8 N 17 28 9 15 1009.8 - 0.0
23/12:00pm 33.7 36.6 23.1 54 7.3 NW 13 17 7 9 1009.9 - 0.0
23/11:30am 34.3 36.9 22.0 48 8.4 W 11 19 6 10 1010.0 - 0.0
23/11:00am 34.5 37.2 22.9 51 8.0 W 13 20 7 11 1010.4 - 0.0
23/10:30am 33.2 36.5 23.2 55 6.9 WNW 11 17 6 9 1010.8 1010.2 0.0
23/10:00am 32.7 36.0 22.5 55 7.0 W 9 15 5 8 1010.7 - 0.0
23/09:30am 32.1 36.3 23.1 59 6.2 SW 6 9 3 5 1010.9 - 0.0
23/09:00am 31.3 35.1 23.4 63 5.5 SSW 9 13 5 7 1010.7 - 0.0
23/08:30am 30.5 34.6 23.9 68 4.6 SW 9 13 5 7 1010.7 - 0.0
23/08:00am 29.6 34.0 23.8 71 4.0 S 7 9 4 5 1010.5 - 0.0
23/07:30am 28.5 32.6 23.2 73 3.6 S 7 11 4 6 1010.3 1009.7 0.0
23/07:00am 27.5 32.6 24.7 85 2.0 S 6 9 3 5 1009.8 - 0.0
23/06:30am 26.6 31.8 24.8 90 1.3 S 6 7 3 4 1009.5 - 0.0
23/06:00am 27.3 32.5 25.1 88 1.5 SSW 7 9 4 5 1009.3 - 0.0
23/05:30am 26.6 32.9 24.8 90 1.3 CALM 0 0 0 0 1009.1 - 0.0
23/05:19am 26.5 32.9 24.9 91 1.1 CALM 0 0 0 0 1009.1 - 0.0
23/05:09am 26.7 33.1 24.9 90 1.3 CALM 0 0 0 0 1009.2 - 0.0
23/05:00am 26.7 32.3 24.9 90 1.3 SE 4 7 2 4 1009.2 - 0.0
23/04:30am 26.8 33.3 25.0 90 1.3 CALM 0 0 0 0 1009.0 1008.4 0.0
23/04:00am 26.8 32.1 25.0 90 1.3 S 6 7 3 4 1009.2 - 0.0
23/03:30am 27.2 33.8 25.2 89 1.4 CALM 0 0 0 0 1009.3 - 0.0
23/03:00am 27.2 33.8 25.2 89 1.4 CALM 0 0 0 0 1009.7 - 0.0
23/02:30am 27.5 33.6 25.1 87 1.7 SE 2 6 1 3 1009.9 - 0.0
23/02:00am 27.7 34.2 25.1 86 1.8 CALM 0 0 0 0 1010.3 - 0.0
23/01:30am 27.9 33.7 25.1 85 2.0 S 4 9 2 5 1010.5 1009.9 0.0
23/01:00am 28.3 34.1 25.1 83 2.2 W 4 7 2 4 1010.4 - 0.0
23/12:30am 28.6 33.9 25.2 82 2.4 SW 7 11 4 6 1010.8 - 0.0
23/12:00am 28.7 34.6 25.3 82 2.4 WNW 4 9 2 5 1011.3 - 0.0
 
Date/Time
CST
Temp
°C
App
Temp
°C
Dew
Point
Rel
Hum
%
Delta-T
°C
Wind Press
QNH
hPa
Press
MSL
hPa
Rain
since 9 am
mm
Dir
 
Spd
km/h
Gust
km/h
Spd
kts
Gust
kts
22/11:30pm 28.7 33.6 25.3 82 2.4 NW 9 13 5 7 1011.1 - 0.0
22/11:00pm 28.9 33.6 24.9 79 2.8 NW 9 13 5 7 1011.3 - 0.0
22/10:30pm 29.1 33.5 24.4 76 3.3 WNW 9 13 5 7 1011.2 1010.6 0.0
22/10:00pm 29.0 33.2 24.1 75 3.4 NW 9 17 5 9 1011.1 - 0.0
22/09:30pm 29.0 34.0 25.4 81 2.5 N 9 15 5 8 1011.0 - 0.0
22/09:00pm 29.1 34.2 25.5 81 2.5 N 9 13 5 7 1010.8 - 0.0
22/08:30pm 29.3 33.7 25.1 78 3.0 NW 11 17 6 9 1010.6 - 0.0
22/08:00pm 29.4 34.5 25.6 80 2.7 NNW 9 13 5 7 1010.1 - 0.0
22/07:30pm 29.6 34.2 24.7 75 3.4 NNW 9 15 5 8 1009.7 1009.1 0.0
22/07:00pm 29.9 34.0 25.2 76 3.3 NNW 13 20 7 11 1009.1 - 0.0
22/06:30pm 30.3 33.5 24.9 73 3.8 NNW 17 24 9 13 1008.3 - 0.0
22/06:00pm 31.0 33.2 23.9 66 4.9 NNW 19 28 10 15 1008.0 - 0.0
22/05:30pm 31.4 33.2 23.2 61 5.7 N 19 28 10 15 1007.8 - 0.0
22/05:00pm 31.9 34.4 24.5 65 5.2 NNW 19 28 10 15 1007.6 - 0.0
22/04:30pm 32.4 34.2 23.6 59 6.1 NNW 20 30 11 16 1007.7 1007.1 0.0
22/04:00pm 32.9 34.2 22.7 55 7.0 NNW 20 32 11 17 1007.9 - 0.0
22/03:30pm 33.8 35.7 23.5 55 7.2 N 19 30 10 16 1008.5 - 0.0
22/03:00pm 33.5 34.9 22.9 53 7.3 NNW 20 30 11 16 1008.8 - 0.0
22/02:30pm 34.4 36.3 22.1 48 8.4 NNW 15 22 8 12 1009.2 - 0.0
22/02:00pm 34.4 36.3 22.8 51 8.0 NNW 17 28 9 15 1009.4 - 0.0
22/01:30pm 34.8 37.5 22.8 49 8.3 NW 13 20 7 11 1009.6 1009.0 0.0
22/01:00pm 34.6 37.2 22.6 49 8.3 NNW 13 20 7 11 1009.9 - 0.0
22/12:30pm 33.8 36.2 22.9 53 7.5 NNW 15 22 8 12 1010.4 - 0.0
22/12:00pm 34.1 36.2 22.5 50 8.0 NNW 15 20 8 11 1010.8 - 0.0
22/11:30am 34.4 36.0 20.7 44 9.2 N 13 20 7 11 1010.8 - 0.0
22/11:00am 34.1 36.0 19.7 42 9.6 NW 9 17 5 9 1011.2 - 0.0
22/10:30am 33.9 36.2 21.3 47 8.5 W 11 17 6 9 1011.2 1010.6 0.0
22/10:00am 33.2 36.9 22.6 53 7.3 SSW 7 15 4 8 1011.6 - 0.0
22/09:30am 31.8 35.8 23.1 60 6.0 WNW 7 13 4 7 1011.4 - 0.0
22/09:00am 31.3 35.8 23.7 64 5.3 S 6 11 3 6 1011.4 - 0.0
22/08:30am 30.5 35.0 23.7 67 4.7 S 6 11 3 6 1011.0 - 0.0
22/08:00am 29.6 34.6 24.5 74 3.6 S 6 9 3 5 1010.6 - 0.0
22/07:30am 28.3 33.9 24.9 82 2.4 S 4 6 2 3 1010.0 1009.4 0.0
22/07:00am 26.5 32.5 24.3 88 1.5 CALM 0 0 0 0 1009.7 - 0.0
22/06:30am 25.9 31.7 23.9 89 1.4 CALM 0 0 0 0 1009.4 - 0.0
22/06:00am 26.1 31.9 24.0 88 1.4 CALM 0 0 0 0 1009.2 - 0.0
22/05:30am 26.4 32.2 23.9 86 1.7 CALM 0 0 0 0 1009.0 - 0.0
22/05:00am 26.7 31.5 24.2 86 1.7 S 6 7 3 4 1008.6 - 0.0
22/04:30am 26.8 31.8 24.5 87 1.6 S 6 9 3 5 1008.5 1007.9 0.0
22/04:00am 27.4 32.5 24.7 85 1.9 SSW 6 9 3 5 1008.4 - 0.0
22/03:30am 26.9 33.3 24.9 89 1.4 CALM 0 9 0 5 1008.5 - 0.0
22/03:00am 27.9 33.5 24.9 84 2.1 WSW 4 9 2 5 1008.7 - 0.0
22/02:30am 28.5 34.0 25.3 83 2.3 W 6 9 3 5 1008.8 - 0.0
22/02:00am 28.8 34.2 25.2 81 2.5 WSW 6 7 3 4 1009.2 - 0.0
22/01:30am 29.1 34.4 25.3 80 2.7 W 7 11 4 6 1009.4 1008.8 0.0
22/01:00am 29.2 34.1 25.2 79 2.8 W 9 13 5 7 1009.8 - 0.0
22/12:30am 29.3 34.4 25.5 80 2.7 W 9 13 5 7 1010.1 - 0.0
22/12:00am 29.3 34.9 25.7 81 2.6 W 7 11 4 6 1010.3 - 0.0
 
Date/Time
CST
Temp
°C
App
Temp
°C
Dew
Point
Rel
Hum
%
Delta-T
°C
Wind Press
QNH
hPa
Press
MSL
hPa
Rain
since 9 am
mm
Dir
 
Spd
km/h
Gust
km/h
Spd
kts
Gust
kts
21/11:30pm 29.4 34.7 25.8 81 2.6 W 9 13 5 7 1010.2 - 0.0
21/11:00pm 29.2 34.3 25.6 81 2.5 WNW 9 13 5 7 1010.2 - 0.0
21/10:30pm 29.1 34.3 25.7 82 2.4 NW 9 13 5 7 1010.1 1009.5 0.0
21/10:00pm 29.3 34.5 25.7 81 2.6 NW 9 15 5 8 1010.3 - 0.0
21/09:30pm 29.2 34.5 25.8 82 2.4 NW 9 15 5 8 1010.2 - 0.0
21/09:00pm 29.3 34.1 25.7 81 2.6 NW 11 17 6 9 1009.9 - 0.0
21/08:30pm 29.4 34.3 25.8 81 2.6 NW 11 15 6 8 1009.7 - 0.0
21/08:00pm 29.6 34.6 26.0 81 2.6 NNW 11 15 6 8 1009.3 - 0.0
21/07:58pm 29.7 35.2 26.1 81 2.6 NNW 9 15 5 8 1009.2 - 0.0
21/07:30pm 29.9 35.0 26.1 80 2.7 NNW 11 17 6 9 1009.1 1008.5 0.0
21/07:00pm 30.1 34.7 26.0 78 2.9 N 13 20 7 11 1008.0 - 0.0
21/06:30pm 30.9 34.7 25.9 74 3.6 NNW 17 26 9 14 1008.3 - 0.0
21/06:00pm 31.0 34.6 25.6 73 3.8 NNW 17 24 9 13 1008.1 - 0.0
21/05:30pm 32.2 35.4 25.0 65 5.1 NNW 17 24 9 13 1007.7 - 0.0
21/05:00pm 32.5 35.6 24.8 64 5.4 NNW 17 24 9 13 1007.5 - 0.0
21/04:30pm 32.8 36.2 25.3 64 5.3 NNW 17 22 9 12 1007.9 1007.3 0.0
21/04:00pm 33.2 36.3 25.7 64 5.4 NNW 20 30 11 16 1007.9 - 0.0
21/03:30pm 33.0 36.0 25.5 64 5.3 N 20 30 11 16 1008.1 - 0.0
21/03:00pm 33.0 35.8 25.3 64 5.5 N 20 32 11 17 1008.0 - 0.0
21/02:30pm 34.0 36.9 25.4 61 6.1 N 20 28 11 15 1007.9 - 0.0
21/02:00pm 35.7 38.1 23.7 50 8.4 N 17 26 9 14 1008.4 - 0.0
21/01:30pm 35.7 38.9 24.3 51 8.1 WNW 15 24 8 13 1008.7 1008.1 0.0
21/01:00pm 35.3 39.0 24.6 54 7.6 W 13 20 7 11 1009.0 - 0.0
21/12:30pm 34.3 38.4 24.5 56 6.9 WNW 11 19 6 10 1009.7 - 0.0
21/12:00pm 34.6 38.8 24.8 56 6.9 W 11 24 6 13 1010.2 - 0.0
21/11:30am 33.0 37.4 25.0 63 5.7 WNW 11 19 6 10 1010.7 - 0.0
21/11:00am 33.1 36.7 24.3 60 6.2 W 13 20 7 11 1010.9 - 0.0
21/10:30am 32.3 36.9 25.4 67 4.9 WNW 11 17 6 9 1011.1 1010.5 0.6
21/10:00am 32.1 36.6 25.2 67 4.9 WNW 11 17 6 9 1011.2 - 0.6
21/09:30am 31.4 36.1 25.5 71 4.2 WNW 11 17 6 9 1011.0 - 0.6
21/09:05am 30.9 35.6 25.5 73 3.8 W 11 17 6 9 1011.0 - 0.6
21/09:00am 30.9 35.6 25.5 73 3.8 W 11 17 6 9 1010.9 - 0.6
21/08:30am 30.1 34.5 25.6 77 3.2 W 13 17 7 9 1010.8 - 0.6
21/08:25am 30.0 34.4 25.7 78 3.1 W 13 17 7 9 1010.9 - 0.6
21/08:00am 29.8 34.1 25.5 78 3.0 W 13 17 7 9 1010.5 - 0.6
21/07:54am 29.7 34.3 25.4 78 3.0 W 11 15 6 8 1010.4 - 0.6
21/07:30am 29.1 34.7 25.7 82 2.4 W 7 11 4 6 1010.2 1009.6 0.6
21/07:18am 28.8 34.9 26.2 86 1.9 W 6 9 3 5 1010.0 - 0.6

Other Formats:

Comma delimited format used in spreadsheet applications
http://www.bom.gov.au/fwo/IDD60801/IDD60801.95101.axf

JavaScript Object Notation format (JSON) in row-major order
http://www.bom.gov.au/fwo/IDD60801/IDD60801.95101.json